»·PEaware :: N452T KBOI-KPDX

N452T :: KBOI-KPDX

FLIGHT INFORMATION

Flight Status: Arrived
Operator: Privately registered:
United States
More flights under this callsign
Pilot: Ernest M. (83)
Aircraft: BEECH AIRCRAFT KING AIR 100
(BE10)
More flights by this aircraft type
Origin: KBOI Boise Air Terminal/Gowen
United States
Destination: KPDX Portland Intl
United States
More flights between these airports :: More routes between these airports
Route: +
File this flight plan on PilotEdge
Remarks:
Altitude:
(Current/Filed)
10,500ft
Speed:
(Current/Filed)
0kts
Departed: 07-Jul-18 03:35 PM
Arrived: 07-Jul-18 04:44 PM
Distance/Time
Traveled:
298nm/1:09
Distance/Time
To Go:
Arrived

Flight Plot

Page will automatically refresh every two minutes.

Flight plan parsing failed; only flown route is shown


Map Options




Map Legend


Flown Route
Filed Route
Departure Airport
Arrival Airport
Navaid (VOR, NDB)
Fix

Horizontal Profiles

Position Reports

Time Latitude Longitude Heading Altitude Ground
Speed
07-Jul-18 15:35 44.324062 -118.593705 288 10578ft 165kts
07-Jul-18 15:36 44.342091 -118.649969 290 10578ft 165kts
07-Jul-18 15:37 44.358397 -118.698106 289 10581ft 166kts
07-Jul-18 15:38 44.378175 -118.756450 289 10581ft 166kts
07-Jul-18 15:39 44.397954 -118.814883 290 10580ft 166kts
07-Jul-18 15:40 44.417748 -118.873495 290 10580ft 167kts
07-Jul-18 15:41 44.437749 -118.932849 290 10580ft 169kts
07-Jul-18 15:42 44.457888 -118.992738 290 10580ft 171kts
07-Jul-18 15:43 44.478108 -119.052998 290 10580ft 173kts
07-Jul-18 15:44 44.498562 -119.114067 290 10580ft 173kts
07-Jul-18 15:45 44.518975 -119.175177 290 10580ft 173kts
07-Jul-18 15:46 44.539389 -119.236435 290 10580ft 173kts
07-Jul-18 15:47 44.559820 -119.297886 290 10580ft 173kts
07-Jul-18 15:48 44.580007 -119.358745 290 10580ft 173kts
07-Jul-18 15:49 44.600269 -119.419971 290 10580ft 173kts
07-Jul-18 15:50 44.620566 -119.481445 290 10580ft 173kts
07-Jul-18 15:51 44.640632 -119.542358 290 10580ft 173kts
07-Jul-18 15:52 44.660805 -119.603741 290 10580ft 173kts
07-Jul-18 15:53 44.680714 -119.664464 290 10581ft 173kts
07-Jul-18 15:53 44.697256 -119.715016 290 10581ft 174kts
07-Jul-18 15:54 44.717303 -119.776411 290 10581ft 174kts
07-Jul-18 15:55 44.737411 -119.838142 290 10581ft 174kts
07-Jul-18 15:56 44.757544 -119.900078 290 10581ft 174kts
07-Jul-18 15:57 44.777325 -119.961081 290 10581ft 174kts
07-Jul-18 15:58 44.797200 -120.022528 289 10581ft 174kts
07-Jul-18 15:59 44.817183 -120.084450 289 10575ft 174kts
07-Jul-18 16:00 44.837117 -120.146391 289 10574ft 173kts
07-Jul-18 16:01 44.856010 -120.205210 289 10573ft 173kts
07-Jul-18 16:02 44.875749 -120.266808 289 10569ft 173kts
07-Jul-18 16:03 44.895503 -120.328598 289 10563ft 173kts
07-Jul-18 16:04 44.915222 -120.390441 289 10558ft 173kts
07-Jul-18 16:05 44.934931 -120.452392 289 10552ft 173kts
07-Jul-18 16:06 44.954640 -120.514477 289 10546ft 173kts
07-Jul-18 16:07 44.974225 -120.576310 289 10544ft 173kts
07-Jul-18 16:08 44.990018 -120.626294 289 10544ft 172kts
07-Jul-18 16:09 45.002167 -120.664823 288 10546ft 172kts
07-Jul-18 16:10 45.020831 -120.724083 288 10546ft 171kts
07-Jul-18 16:11 45.039574 -120.783766 288 10546ft 170kts
07-Jul-18 16:12 45.058320 -120.843574 289 10546ft 169kts
07-Jul-18 16:13 45.077307 -120.904319 288 10546ft 169kts
07-Jul-18 16:14 45.096116 -120.964593 289 10545ft 168kts
07-Jul-18 16:15 45.113676 -121.021051 289 10543ft 167kts
07-Jul-18 16:17 45.131341 -121.077782 292 10541ft 167kts
07-Jul-18 16:18 45.166773 -121.121435 316 10543ft 173kts
07-Jul-18 16:19 45.203436 -121.163359 316 10543ft 173kts
07-Jul-18 16:20 45.240140 -121.205745 316 10543ft 174kts
07-Jul-18 16:21 45.276537 -121.248017 316 10543ft 174kts
07-Jul-18 16:22 45.313150 -121.290542 316 10543ft 174kts
07-Jul-18 16:23 45.349728 -121.333003 316 10543ft 174kts
07-Jul-18 16:24 45.358645 -121.394117 277 10543ft 165kts
07-Jul-18 16:25 45.368769 -121.456785 282 10543ft 166kts
07-Jul-18 16:26 45.380923 -121.520006 282 10542ft 167kts
07-Jul-18 16:27 45.393295 -121.582776 283 10542ft 167kts
07-Jul-18 16:28 45.405546 -121.644875 283 10542ft 167kts
07-Jul-18 16:29 45.416388 -121.699973 282 10548ft 167kts
07-Jul-18 16:30 45.428467 -121.761542 282 10567ft 166kts
07-Jul-18 16:31 45.440439 -121.822753 283 10585ft 167kts
07-Jul-18 16:32 45.452642 -121.885301 283 10604ft 167kts
07-Jul-18 16:33 45.464807 -121.947841 283 10594ft 168kts
07-Jul-18 16:34 45.478837 -122.010244 291 9212ft 171kts
07-Jul-18 16:35 45.490543 -122.070955 278 6608ft 157kts
07-Jul-18 16:36 45.493948 -122.130194 276 5367ft 184kts
07-Jul-18 16:37 45.500725 -122.202790 277 4998ft 188kts
07-Jul-18 16:38 45.502679 -122.274227 269 4396ft 204kts
07-Jul-18 16:39 45.506259 -122.351844 287 3429ft 210kts
07-Jul-18 16:40 45.524624 -122.421869 293 2926ft 200kts
07-Jul-18 16:41 45.550056 -122.481085 306 1797ft 169kts
07-Jul-18 16:42 45.566942 -122.522582 301 761ft 111kts
07-Jul-18 16:43 45.579994 -122.557620 302 208ft 101kts
07-Jul-18 16:44 45.591481 -122.587002 297 17ft 53kts
07-Jul-18 16:45 45.591804 -122.591062 109 17ft 3kts
07-Jul-18 16:46 45.590093 -122.586711 118 17ft 25kts
07-Jul-18 16:47 45.587393 -122.583958 202 17ft 0kts
07-Jul-18 16:48 45.587392 -122.583958 202 17ft 0kts

Navigation Log

Ident Type
Flight plan parsing failed, navigation log unavailable